createdAt,value
2018-02-19T00:00:51.885Z,1041.61
2018-02-19T00:01:51.873Z,1041.59
2018-02-19T00:02:51.860Z,1041.55
2018-02-19T00:03:51.847Z,1041.56
2018-02-19T00:04:51.831Z,1041.58
2018-02-19T00:05:51.815Z,1041.6
2018-02-19T00:06:51.801Z,1041.59
2018-02-19T00:07:51.789Z,1041.64
2018-02-19T00:08:51.777Z,1041.64
2018-02-19T00:09:51.764Z,1041.63
2018-02-19T00:10:51.748Z,1041.62
2018-02-19T00:11:51.732Z,1041.68
2018-02-19T00:12:51.719Z,1041.66
2018-02-19T00:13:51.705Z,1041.59
2018-02-19T00:14:51.693Z,1041.65
2018-02-19T00:15:51.680Z,1041.59
2018-02-19T00:16:51.665Z,1041.57
2018-02-19T00:17:51.650Z,1041.57
2018-02-19T00:18:51.638Z,1041.53
2018-02-19T00:19:51.623Z,1041.5
2018-02-19T00:20:51.610Z,1041.49
2018-02-19T00:21:51.595Z,1041.51
2018-02-19T00:22:51.581Z,1041.48
2018-02-19T00:23:51.573Z,1041.47
2018-02-19T00:24:51.554Z,1041.46
2018-02-19T00:25:51.541Z,1041.49
2018-02-19T00:26:51.526Z,1041.45
2018-02-19T00:27:51.511Z,1041.39
2018-02-19T00:28:51.498Z,1041.41
2018-02-19T00:29:51.485Z,1041.41
2018-02-19T00:30:51.471Z,1041.38
2018-02-19T00:31:51.455Z,1041.39
2018-02-19T00:32:51.442Z,1041.37
2018-02-19T00:33:51.429Z,1041.37
2018-02-19T00:34:51.414Z,1041.37
2018-02-19T00:35:51.401Z,1041.37
2018-02-19T00:36:51.387Z,1041.35
2018-02-19T00:37:51.373Z,1041.37
2018-02-19T00:38:51.360Z,1041.33
2018-02-19T00:39:51.344Z,1041.35
2018-02-19T00:40:51.333Z,1041.38
2018-02-19T00:41:51.319Z,1041.39
2018-02-19T00:42:51.304Z,1041.37
2018-02-19T00:43:51.291Z,1041.41
2018-02-19T00:44:51.276Z,1041.46
2018-02-19T00:45:51.260Z,1041.48
2018-02-19T00:46:51.248Z,1041.43
2018-02-19T00:47:51.235Z,1041.46
2018-02-19T00:48:51.221Z,1041.51
2018-02-19T00:49:51.206Z,1041.47
2018-02-19T00:50:51.192Z,1041.52
2018-02-19T00:51:51.181Z,1041.53
2018-02-19T00:52:51.165Z,1041.59
2018-02-19T00:53:51.149Z,1041.66
2018-02-19T00:54:51.136Z,1041.72
2018-02-19T00:55:51.124Z,1041.79
2018-02-19T00:56:51.111Z,1041.89
2018-02-19T00:57:51.095Z,1041.92
2018-02-19T00:58:51.081Z,1042
2018-02-19T00:59:51.068Z,1042.04
2018-02-19T01:00:51.051Z,1042.1
2018-02-19T01:01:51.038Z,1042.14
2018-02-19T01:02:51.028Z,1042.17
2018-02-19T01:03:51.010Z,1042.18
2018-02-19T01:04:50.994Z,1042.27
2018-02-19T01:05:50.986Z,1042.26
2018-02-19T01:06:50.966Z,1042.28
2018-02-19T01:07:50.951Z,1042.33
2018-02-19T01:08:50.937Z,1042.34
2018-02-19T01:09:50.924Z,1042.36
2018-02-19T01:10:50.908Z,1042.34
2018-02-19T01:11:50.893Z,1042.44
2018-02-19T01:12:50.879Z,1042.42
2018-02-19T01:13:50.869Z,1042.48
2018-02-19T01:14:50.852Z,1042.49
2018-02-19T01:15:50.836Z,1042.45
2018-02-19T01:16:50.821Z,1042.43
2018-02-19T01:17:50.805Z,1042.39
2018-02-19T01:18:50.790Z,1042.33
2018-02-19T01:19:50.776Z,1042.31
2018-02-19T01:20:50.761Z,1042.28
2018-02-19T01:21:50.746Z,1042.31
2018-02-19T01:22:50.732Z,1042.27
2018-02-19T01:23:50.716Z,1042.24
2018-02-19T01:24:50.702Z,1042.24
2018-02-19T01:25:50.687Z,1042.26
2018-02-19T01:26:50.672Z,1042.24
2018-02-19T01:27:50.657Z,1042.22
2018-02-19T01:28:50.643Z,1042.19
2018-02-19T01:29:50.629Z,1042.17
2018-02-19T01:30:50.617Z,1042.13
2018-02-19T01:31:50.597Z,1042.12
2018-02-19T01:32:50.582Z,1042.12
2018-02-19T01:33:50.567Z,1042.14
2018-02-19T01:34:50.552Z,1042.08
2018-02-19T01:35:50.537Z,1042.1
2018-02-19T01:36:50.522Z,1042.08
2018-02-19T01:37:50.506Z,1042.07
2018-02-19T01:38:50.493Z,1042.05
2018-02-19T01:39:50.477Z,1042.02
2018-02-19T01:40:50.463Z,1042.02
2018-02-19T01:41:50.447Z,1042
2018-02-19T01:42:50.435Z,1041.98
2018-02-19T01:43:50.418Z,1041.94
2018-02-19T01:44:50.402Z,1041.91
2018-02-19T01:45:50.387Z,1041.89
2018-02-19T01:46:50.371Z,1041.88
2018-02-19T01:47:50.361Z,1041.87
2018-02-19T01:48:50.343Z,1041.84
2018-02-19T01:49:50.327Z,1041.8
2018-02-19T01:50:50.314Z,1041.79
2018-02-19T01:51:50.297Z,1041.76
2018-02-19T01:52:50.286Z,1041.72
2018-02-19T01:53:50.273Z,1041.74
2018-02-19T01:54:50.253Z,1041.73
2018-02-19T01:55:50.237Z,1041.69
2018-02-19T01:56:50.222Z,1041.69
2018-02-19T01:57:50.207Z,1041.7
2018-02-19T01:58:50.191Z,1041.64
2018-02-19T01:59:50.178Z,1041.64
2018-02-19T02:00:50.163Z,1041.61
2018-02-19T02:01:50.147Z,1041.65
2018-02-19T02:02:50.133Z,1041.6
2018-02-19T02:03:50.116Z,1041.58
2018-02-19T02:04:50.103Z,1041.59
2018-02-19T02:05:50.089Z,1041.59
2018-02-19T02:06:50.071Z,1041.56
2018-02-19T02:07:50.058Z,1041.58
2018-02-19T02:08:50.043Z,1041.59
2018-02-19T02:09:50.027Z,1041.59
2018-02-19T02:10:50.012Z,1041.59
2018-02-19T02:11:49.998Z,1041.55
2018-02-19T02:12:49.983Z,1041.56
2018-02-19T02:13:49.966Z,1041.58
2018-02-19T02:14:49.951Z,1041.53
2018-02-19T02:15:49.940Z,1041.49
2018-02-19T02:16:49.923Z,1041.52
2018-02-19T02:17:49.907Z,1041.53
2018-02-19T02:18:49.891Z,1041.45
2018-02-19T02:19:49.876Z,1041.46
2018-02-19T02:20:49.869Z,1041.46
2018-02-19T02:21:49.846Z,1041.45
2018-02-19T02:22:49.832Z,1041.48
2018-02-19T02:23:49.816Z,1041.48
2018-02-19T02:24:49.800Z,1041.46
2018-02-19T02:25:49.786Z,1041.5
2018-02-19T02:26:49.771Z,1041.47
2018-02-19T02:27:49.756Z,1041.47
2018-02-19T02:28:49.739Z,1041.44
2018-02-19T02:29:49.727Z,1041.44
2018-02-19T02:30:49.714Z,1041.43
2018-02-19T02:31:49.694Z,1041.44
2018-02-19T02:32:49.680Z,1041.5
2018-02-19T02:33:49.670Z,1041.46
2018-02-19T02:34:49.652Z,1041.44
2018-02-19T02:35:49.633Z,1041.42
2018-02-19T02:36:49.621Z,1041.38
2018-02-19T02:37:49.604Z,1041.41
2018-02-19T02:38:49.589Z,1041.37
2018-02-19T02:39:49.574Z,1041.36
2018-02-19T02:40:49.558Z,1041.37
2018-02-19T02:41:49.542Z,1041.39
2018-02-19T02:42:49.527Z,1041.34
2018-02-19T02:43:49.513Z,1041.31
2018-02-19T02:44:49.497Z,1041.35
2018-02-19T02:45:49.484Z,1041.32
2018-02-19T02:46:49.466Z,1041.32
2018-02-19T02:47:49.452Z,1041.31
2018-02-19T02:48:49.439Z,1041.29
2018-02-19T02:49:49.421Z,1041.23
2018-02-19T02:50:49.404Z,1041.22
2018-02-19T02:51:49.392Z,1041.23
2018-02-19T02:52:49.376Z,1041.22
2018-02-19T02:53:49.359Z,1041.2
2018-02-19T02:54:49.344Z,1041.21
2018-02-19T02:55:49.329Z,1041.19
2018-02-19T02:56:49.315Z,1041.12
2018-02-19T02:57:49.299Z,1041.14
2018-02-19T02:58:49.289Z,1041.11
2018-02-19T02:59:49.270Z,1041.11
2018-02-19T03:00:49.254Z,1041.09
2018-02-19T03:01:49.237Z,1041.09
2018-02-19T03:02:49.225Z,1041.05
2018-02-19T03:03:49.215Z,1041.01
2018-02-19T03:04:49.193Z,1041
2018-02-19T03:05:49.177Z,1040.98
2018-02-19T03:06:49.462Z,1040.98
2018-02-19T03:07:49.150Z,1041.02
2018-02-19T03:08:49.133Z,1040.97
2018-02-19T03:09:49.118Z,1040.96
2018-02-19T03:10:49.104Z,1041
2018-02-19T03:11:49.087Z,1040.98
2018-02-19T03:12:49.071Z,1040.98
2018-02-19T03:13:49.057Z,1040.97
2018-02-19T03:14:49.043Z,1040.94
2018-02-19T03:15:49.026Z,1040.96
2018-02-19T03:16:49.012Z,1040.95
2018-02-19T03:17:48.998Z,1040.93
2018-02-19T03:18:48.982Z,1040.91
2018-02-19T03:19:48.967Z,1040.92
2018-02-19T03:20:48.955Z,1040.92
2018-02-19T03:21:48.941Z,1040.94
2018-02-19T03:22:48.921Z,1040.94
2018-02-19T03:23:48.906Z,1040.98
2018-02-19T03:24:48.891Z,1040.97
2018-02-19T03:25:48.877Z,1040.99
2018-02-19T03:26:48.862Z,1040.95
2018-02-19T03:27:48.846Z,1040.96
2018-02-19T03:28:48.831Z,1040.94
2018-02-19T03:29:48.819Z,1040.96
2018-02-19T03:30:48.802Z,1040.95
2018-02-19T03:31:48.786Z,1040.94
2018-02-19T03:32:48.771Z,1040.93
2018-02-19T03:33:48.755Z,1040.96
2018-02-19T03:34:48.745Z,1040.96
2018-02-19T03:35:48.724Z,1040.97
2018-02-19T03:36:48.710Z,1040.99
2018-02-19T03:37:48.699Z,1041.01
2018-02-19T03:38:48.680Z,1041.02
2018-02-19T03:39:48.664Z,1041.02
2018-02-19T03:40:48.649Z,1041.01
2018-02-19T03:41:48.634Z,1041.03
2018-02-19T03:42:48.619Z,1040.99
2018-02-19T03:43:48.603Z,1040.99
2018-02-19T03:44:48.586Z,1040.97
2018-02-19T03:45:48.573Z,1040.97
2018-02-19T03:46:48.558Z,1040.92
2018-02-19T03:47:48.541Z,1040.89
2018-02-19T03:48:48.528Z,1040.89
2018-02-19T03:49:48.511Z,1040.9
2018-02-19T03:50:48.496Z,1040.84
2018-02-19T03:51:48.485Z,1040.89
2018-02-19T03:52:48.465Z,1040.91
2018-02-19T03:53:48.451Z,1040.86
2018-02-19T03:54:48.435Z,1040.88
2018-02-19T03:55:48.419Z,1040.89
2018-02-19T03:56:48.405Z,1040.85
2018-02-19T03:57:48.390Z,1040.83
2018-02-19T03:58:48.375Z,1040.8
2018-02-19T03:59:48.358Z,1040.83
2018-02-19T04:00:48.344Z,1040.8
2018-02-19T04:01:48.328Z,1040.79
2018-02-19T04:02:48.313Z,1040.8
2018-02-19T04:03:48.299Z,1040.84
2018-02-19T04:04:48.282Z,1040.82
2018-02-19T04:05:48.268Z,1040.8
2018-02-19T04:06:48.250Z,1040.8
2018-02-19T04:07:48.237Z,1040.78
2018-02-19T04:08:48.220Z,1040.77
2018-02-19T04:09:48.205Z,1040.77
2018-02-19T04:10:48.193Z,1040.78
2018-02-19T04:11:48.175Z,1040.75
2018-02-19T04:12:48.159Z,1040.78
2018-02-19T04:13:48.144Z,1040.78
2018-02-19T04:14:48.128Z,1040.8
2018-02-19T04:15:48.114Z,1040.83
2018-02-19T04:16:48.098Z,1040.8
2018-02-19T04:17:48.087Z,1040.81
2018-02-19T04:18:48.066Z,1040.82
2018-02-19T04:19:48.052Z,1040.79
2018-02-19T04:20:48.040Z,1040.8
2018-02-19T04:21:48.021Z,1040.76
2018-02-19T04:22:48.005Z,1040.77
2018-02-19T04:23:47.990Z,1040.77
2018-02-19T04:24:47.976Z,1040.82
2018-02-19T04:25:47.959Z,1040.82
2018-02-19T04:26:47.943Z,1040.81
2018-02-19T04:27:47.928Z,1040.84
2018-02-19T04:28:47.913Z,1040.8
2018-02-19T04:29:47.897Z,1040.78
2018-02-19T04:30:47.883Z,1040.74
2018-02-19T04:31:47.867Z,1040.77
2018-02-19T04:32:47.851Z,1040.77
2018-02-19T04:33:47.839Z,1040.78
2018-02-19T04:34:47.827Z,1040.72
2018-02-19T04:35:47.806Z,1040.74
2018-02-19T04:36:47.789Z,1040.72
2018-02-19T04:37:47.774Z,1040.75
2018-02-19T04:38:47.759Z,1040.72
2018-02-19T04:39:47.743Z,1040.75
2018-02-19T04:40:47.727Z,1040.75
2018-02-19T04:41:47.712Z,1040.74
2018-02-19T04:42:47.697Z,1040.78
2018-02-19T04:43:47.680Z,1040.74
2018-02-19T04:44:47.664Z,1040.74
2018-02-19T04:45:47.653Z,1040.77
2018-02-19T04:46:47.635Z,1040.78
2018-02-19T04:47:47.620Z,1040.76
2018-02-19T04:48:47.604Z,1040.75
2018-02-19T04:49:47.589Z,1040.85
2018-02-19T04:50:47.571Z,1040.82
2018-02-19T04:51:47.556Z,1040.82
2018-02-19T04:52:47.540Z,1040.79
2018-02-19T04:53:47.526Z,1040.87
2018-02-19T04:54:47.510Z,1040.87
2018-02-19T04:55:47.493Z,1040.85
2018-02-19T04:56:47.479Z,1040.84
2018-02-19T04:57:47.463Z,1040.82
2018-02-19T04:58:47.448Z,1040.84
2018-02-19T04:59:47.432Z,1040.84
2018-02-19T05:00:47.417Z,1040.86
2018-02-19T05:01:47.401Z,1040.88
2018-02-19T05:02:47.431Z,1040.88
2018-02-19T05:03:47.369Z,1040.92
2018-02-19T05:04:47.353Z,1040.92
2018-02-19T05:05:47.342Z,1040.91
2018-02-19T05:06:47.338Z,1040.95
2018-02-19T05:07:47.313Z,1040.9
2018-02-19T05:08:47.307Z,1040.94
2018-02-19T05:09:47.291Z,1040.88
2018-02-19T05:10:47.260Z,1040.94
2018-02-19T05:11:47.243Z,1040.97
2018-02-19T05:12:47.228Z,1040.95
2018-02-19T05:13:47.212Z,1040.94
2018-02-19T05:14:47.200Z,1041
2018-02-19T05:15:47.181Z,1041
2018-02-19T05:16:47.171Z,1041.01
2018-02-19T05:17:47.148Z,1041.03
2018-02-19T05:18:47.132Z,1041.07
2018-02-19T05:19:47.116Z,1041.06
2018-02-19T05:20:47.100Z,1041.05
2018-02-19T05:21:47.084Z,1041.04
2018-02-19T05:22:47.069Z,1041.09
2018-02-19T05:23:47.054Z,1041.05
2018-02-19T05:24:47.038Z,1041.08
2018-02-19T05:25:47.021Z,1041.09
2018-02-19T05:26:47.008Z,1041.11
2018-02-19T05:27:46.989Z,1041.13
2018-02-19T05:28:46.974Z,1041.18
2018-02-19T05:29:46.959Z,1041.2
2018-02-19T05:30:46.941Z,1041.15
2018-02-19T05:31:46.925Z,1041.18
2018-02-19T05:32:46.910Z,1041.12
2018-02-19T05:33:46.892Z,1041.17
2018-02-19T05:34:46.876Z,1041.11
2018-02-19T05:35:46.861Z,1041.21
2018-02-19T05:36:46.846Z,1041.16
2018-02-19T05:37:46.830Z,1041.16
2018-02-19T05:38:46.813Z,1041.18
2018-02-19T05:39:46.796Z,1041.16
2018-02-19T05:40:46.781Z,1041.15
2018-02-19T05:41:46.767Z,1041.17
2018-02-19T05:42:46.747Z,1041.14
2018-02-19T05:43:46.734Z,1041.15
2018-02-19T05:44:46.717Z,1041.12
2018-02-19T05:45:46.700Z,1041.12
2018-02-19T05:46:46.685Z,1041.13
2018-02-19T05:47:46.667Z,1041.15
2018-02-19T05:48:46.651Z,1041.14
2018-02-19T05:49:46.636Z,1041.19
2018-02-19T05:50:46.619Z,1041.16
2018-02-19T05:51:46.603Z,1041.18
2018-02-19T05:52:46.590Z,1041.17
2018-02-19T05:53:46.571Z,1041.17
2018-02-19T05:54:46.556Z,1041.18
2018-02-19T05:55:46.544Z,1041.21
2018-02-19T05:56:46.523Z,1041.16
2018-02-19T05:57:46.507Z,1041.18
2018-02-19T05:58:46.490Z,1041.18
2018-02-19T05:59:46.474Z,1041.24
2018-02-19T06:00:46.459Z,1041.19
2018-02-19T06:01:46.442Z,1041.19
2018-02-19T06:02:46.426Z,1041.19
2018-02-19T06:03:46.411Z,1041.19
2018-02-19T06:04:46.394Z,1041.2
2018-02-19T06:05:46.378Z,1041.19
2018-02-19T06:06:46.362Z,1041.16
2018-02-19T06:07:46.347Z,1041.17
2018-02-19T06:08:46.329Z,1041.17
2018-02-19T06:09:46.314Z,1041.17
2018-02-19T06:10:46.298Z,1041.17
2018-02-19T06:11:46.282Z,1041.15
2018-02-19T06:12:46.264Z,1041.12
2018-02-19T06:13:46.252Z,1041.11
2018-02-19T06:14:46.232Z,1041.12
2018-02-19T06:15:46.215Z,1041.1
2018-02-19T06:16:46.201Z,1041.06
2018-02-19T06:17:46.185Z,1041.08
2018-02-19T06:18:46.168Z,1041.03
2018-02-19T06:19:46.152Z,1041.03
2018-02-19T06:20:46.136Z,1040.99
2018-02-19T06:21:46.121Z,1040.97
2018-02-19T06:22:46.104Z,1040.89
2018-02-19T06:23:46.089Z,1040.88
2018-02-19T06:24:46.071Z,1040.85
2018-02-19T06:25:46.054Z,1040.85
2018-02-19T06:26:46.039Z,1040.83
2018-02-19T06:27:46.022Z,1040.78
2018-02-19T06:28:46.008Z,1040.75
2018-02-19T06:29:45.991Z,1040.73
2018-02-19T06:30:45.975Z,1040.66
2018-02-19T06:31:45.968Z,1040.64
2018-02-19T06:32:45.943Z,1040.61
2018-02-19T06:33:45.929Z,1040.6
2018-02-19T06:34:45.913Z,1040.57
2018-02-19T06:35:45.897Z,1040.53
2018-02-19T06:36:45.882Z,1040.49
2018-02-19T06:37:45.864Z,1040.51
2018-02-19T06:38:45.847Z,1040.47
2018-02-19T06:39:45.832Z,1040.45
2018-02-19T06:40:45.815Z,1040.4
2018-02-19T06:41:45.801Z,1040.4
2018-02-19T06:42:45.785Z,1040.39
2018-02-19T06:43:45.767Z,1040.4
2018-02-19T06:44:45.752Z,1040.35
2018-02-19T06:45:45.742Z,1040.34
2018-02-19T06:46:45.722Z,1040.31
2018-02-19T06:47:45.705Z,1040.3
2018-02-19T06:48:45.688Z,1040.35
2018-02-19T06:49:45.674Z,1040.27
2018-02-19T06:50:45.657Z,1040.32
2018-02-19T06:51:45.642Z,1040.26
2018-02-19T06:52:45.625Z,1040.24
2018-02-19T06:53:45.614Z,1040.22
2018-02-19T06:54:45.597Z,1040.24
2018-02-19T06:55:45.578Z,1040.19
2018-02-19T06:56:45.566Z,1040.21
2018-02-19T06:57:45.548Z,1040.21
2018-02-19T06:58:45.533Z,1040.19
2018-02-19T06:59:45.518Z,1040.19
2018-02-19T07:00:45.509Z,1040.19
2018-02-19T07:01:45.485Z,1040.2
2018-02-19T07:02:45.478Z,1040.18
2018-02-19T07:03:45.453Z,1040.14
2018-02-19T07:04:45.438Z,1040.12
2018-02-19T07:05:45.422Z,1040.1
2018-02-19T07:06:45.407Z,1040.05
2018-02-19T07:07:45.392Z,1039.99
2018-02-19T07:08:45.376Z,1039.91
2018-02-19T07:09:45.400Z,1039.87
2018-02-19T07:10:45.596Z,1039.86
2018-02-19T07:11:45.332Z,1039.78
2018-02-19T07:12:45.316Z,1039.78
2018-02-19T07:13:45.300Z,1039.7
2018-02-19T07:14:45.286Z,1039.7
2018-02-19T07:15:45.270Z,1039.66
2018-02-19T07:16:45.255Z,1039.61
2018-02-19T07:17:45.257Z,1039.58
2018-02-19T07:18:45.225Z,1039.46
2018-02-19T07:19:45.211Z,1039.39
2018-02-19T07:20:45.194Z,1039.34
2018-02-19T07:21:45.180Z,1039.25
2018-02-19T07:22:45.165Z,1039.17
2018-02-19T07:23:45.150Z,1039.14
2018-02-19T07:24:45.136Z,1039.05
2018-02-19T07:25:45.120Z,1038.97
2018-02-19T07:26:45.106Z,1038.9
2018-02-19T07:27:45.092Z,1038.82
2018-02-19T07:28:45.076Z,1038.71
2018-02-19T07:29:45.063Z,1038.6
2018-02-19T07:30:45.047Z,1038.51
2018-02-19T07:31:45.033Z,1038.39
2018-02-19T07:32:45.019Z,1038.31
2018-02-19T07:33:45.005Z,1038.26
2018-02-19T07:34:44.991Z,1038.14
2018-02-19T07:35:44.977Z,1038.17
2018-02-19T07:36:44.962Z,1038.15
2018-02-19T07:37:44.949Z,1038.17
2018-02-19T07:38:44.933Z,1038.16
2018-02-19T07:39:44.921Z,1038.17
2018-02-19T07:40:44.910Z,1038.14
2018-02-19T07:41:44.906Z,1038.16
2018-02-19T07:42:44.878Z,1038.15
2018-02-19T07:43:44.864Z,1038.15
2018-02-19T07:44:44.852Z,1038.22
2018-02-19T07:45:44.839Z,1038.26
2018-02-19T07:46:44.823Z,1038.21
2018-02-19T07:47:44.816Z,1038.24
2018-02-19T07:48:44.797Z,1038.24
2018-02-19T07:49:44.783Z,1038.27
2018-02-19T07:50:44.771Z,1038.38
2018-02-19T07:51:44.759Z,1038.33
2018-02-19T07:52:44.744Z,1038.32
2018-02-19T07:53:44.730Z,1038.28
2018-02-19T07:54:44.716Z,1038.27
2018-02-19T07:55:44.703Z,1038.24
2018-02-19T07:56:44.689Z,1038.24
2018-02-19T07:57:44.675Z,1038.22
2018-02-19T07:58:44.662Z,1038.2
2018-02-19T07:59:44.649Z,1038.24
2018-02-19T08:00:44.635Z,1038.19
2018-02-19T08:01:44.622Z,1038.2
2018-02-19T08:02:44.616Z,1038.15
2018-02-19T08:03:44.596Z,1038.11
2018-02-19T08:04:44.623Z,1038.1
2018-02-19T08:05:44.568Z,1038.1
2018-02-19T08:06:44.555Z,1038.05
2018-02-19T08:07:44.540Z,1038.02
2018-02-19T08:08:44.528Z,1037.98
2018-02-19T08:09:44.515Z,1037.97
2018-02-19T08:10:44.509Z,1037.91
2018-02-19T08:11:44.487Z,1037.91
2018-02-19T08:12:44.485Z,1037.88
2018-02-19T08:13:44.462Z,1037.9
2018-02-19T08:14:44.449Z,1037.94
2018-02-19T08:15:44.448Z,1037.98
2018-02-19T08:16:44.422Z,1038.01
2018-02-19T08:17:44.408Z,1038.04
2018-02-19T08:18:44.395Z,1038.03
2018-02-19T08:19:44.383Z,1038
2018-02-19T08:20:44.370Z,1037.91
2018-02-19T08:21:44.357Z,1037.91
2018-02-19T08:22:44.342Z,1037.83
2018-02-19T08:23:44.331Z,1037.79
2018-02-19T08:24:44.320Z,1037.83
2018-02-19T08:25:44.305Z,1037.77
2018-02-19T08:26:44.296Z,1037.72
2018-02-19T08:27:44.278Z,1037.68
2018-02-19T08:28:44.266Z,1037.65
2018-02-19T08:29:44.253Z,1037.65
2018-02-19T08:30:44.241Z,1037.6
2018-02-19T08:31:44.229Z,1037.57
2018-02-19T08:32:44.213Z,1037.5
2018-02-19T08:33:44.200Z,1037.46
2018-02-19T08:34:44.188Z,1037.37
2018-02-19T08:35:44.183Z,1037.35
2018-02-19T08:36:44.162Z,1037.32
2018-02-19T08:37:44.148Z,1037.29
2018-02-19T08:38:44.137Z,1037.28
2018-02-19T08:39:44.123Z,1037.22
2018-02-19T08:40:44.111Z,1037.2
2018-02-19T08:41:44.098Z,1037.09
2018-02-19T08:42:44.085Z,1037.1
2018-02-19T08:43:44.074Z,1037.07
2018-02-19T08:44:44.066Z,1037.02
2018-02-19T08:45:44.048Z,1037.01
2018-02-19T08:46:44.036Z,1036.99
2018-02-19T08:47:44.024Z,1036.94
2018-02-19T08:48:44.011Z,1036.88
2018-02-19T08:49:44.005Z,1036.86
2018-02-19T08:50:43.987Z,1036.75
2018-02-19T08:51:43.975Z,1036.73
2018-02-19T08:52:43.964Z,1036.68
2018-02-19T08:53:43.949Z,1036.67
2018-02-19T08:54:43.939Z,1036.66
2018-02-19T08:55:43.927Z,1036.63
2018-02-19T08:56:43.911Z,1036.58
2018-02-19T08:57:43.901Z,1036.56
2018-02-19T08:58:43.890Z,1036.52
2018-02-19T08:59:43.891Z,1036.46
2018-02-19T09:00:43.866Z,1036.37
2018-02-19T09:01:43.851Z,1036.35
2018-02-19T09:02:43.840Z,1036.28
2018-02-19T09:03:43.828Z,1036.23
2018-02-19T09:04:43.832Z,1036.21
2018-02-19T09:05:43.813Z,1036.14
2018-02-19T09:06:43.795Z,1036.12
2018-02-19T09:07:43.783Z,1036.07
2018-02-19T09:08:43.768Z,1036.07
2018-02-19T09:09:43.756Z,1036
2018-02-19T09:10:43.745Z,1035.94
2018-02-19T09:11:43.732Z,1035.91
2018-02-19T09:12:43.721Z,1035.88
2018-02-19T09:13:43.709Z,1035.8
2018-02-19T09:14:43.714Z,1035.8
2018-02-19T09:15:43.687Z,1035.75
2018-02-19T09:16:43.678Z,1035.73
2018-02-19T09:17:43.662Z,1035.7
2018-02-19T09:18:43.651Z,1035.71
2018-02-19T09:19:43.643Z,1035.69
2018-02-19T09:20:43.628Z,1035.72
2018-02-19T09:21:43.620Z,1035.79
2018-02-19T09:22:43.632Z,1035.76
2018-02-19T09:23:43.596Z,1035.77
2018-02-19T09:24:43.582Z,1035.8
2018-02-19T09:25:43.575Z,1035.78
2018-02-19T09:26:43.562Z,1035.76
2018-02-19T09:27:43.550Z,1035.81
2018-02-19T09:28:43.541Z,1035.82
2018-02-19T09:29:43.527Z,1035.79
2018-02-19T09:30:43.516Z,1035.73
2018-02-19T09:31:43.505Z,1035.72
2018-02-19T09:32:43.493Z,1035.67
2018-02-19T09:33:43.485Z,1035.6
2018-02-19T09:34:43.472Z,1035.59
2018-02-19T09:35:43.460Z,1035.55
2018-02-19T09:36:43.447Z,1035.56
2018-02-19T09:37:43.436Z,1035.54
2018-02-19T09:38:43.427Z,1035.55
2018-02-19T09:39:43.414Z,1035.5
2018-02-19T09:40:43.403Z,1035.49
2018-02-19T09:41:43.393Z,1035.43
2018-02-19T09:42:43.381Z,1035.38
2018-02-19T09:43:43.370Z,1035.28
2018-02-19T09:44:43.359Z,1035.22
2018-02-19T09:45:43.348Z,1035.24
2018-02-19T09:46:43.588Z,1035.19
2018-02-19T09:47:43.326Z,1035.15
2018-02-19T09:48:43.316Z,1035.1
2018-02-19T09:49:43.305Z,1035.04
2018-02-19T09:50:43.299Z,1035.07
2018-02-19T09:51:43.282Z,1035.14
2018-02-19T09:52:43.273Z,1035.1
2018-02-19T09:53:43.261Z,1035.12
2018-02-19T09:54:43.252Z,1035.12
2018-02-19T09:55:43.243Z,1035.14
2018-02-19T09:56:43.231Z,1035.14
2018-02-19T09:57:43.219Z,1035.23
2018-02-19T09:58:43.208Z,1035.21
2018-02-19T09:59:43.197Z,1035.22
2018-02-19T10:00:43.188Z,1035.18
2018-02-19T10:01:43.184Z,1035.16
2018-02-19T10:02:43.165Z,1035.11
2018-02-19T10:03:43.155Z,1035.04
2018-02-19T10:04:43.144Z,1035.05
2018-02-19T10:05:43.139Z,1034.96
2018-02-19T10:06:43.122Z,1034.97
2018-02-19T10:07:43.112Z,1034.96
2018-02-19T10:08:43.101Z,1034.96
2018-02-19T10:09:43.090Z,1034.97
2018-02-19T10:10:43.079Z,1034.88
2018-02-19T10:11:43.070Z,1034.85
2018-02-19T10:12:43.059Z,1034.73
2018-02-19T10:13:43.049Z,1034.68
2018-02-19T10:14:43.037Z,1034.66
2018-02-19T10:15:43.031Z,1034.73
2018-02-19T10:16:43.034Z,1034.75
2018-02-19T10:17:43.011Z,1034.81
2018-02-19T10:18:43.000Z,1034.88
2018-02-19T10:19:42.984Z,1034.8
2018-02-19T10:20:42.979Z,1034.85
2018-02-19T10:21:42.965Z,1034.8
2018-02-19T10:22:42.958Z,1034.81
2018-02-19T10:23:42.943Z,1034.8
2018-02-19T10:24:42.935Z,1034.84
2018-02-19T10:25:42.924Z,1034.78
2018-02-19T10:26:42.913Z,1034.82
2018-02-19T10:27:42.903Z,1034.85
2018-02-19T10:28:42.894Z,1034.95
2018-02-19T10:29:42.888Z,1035.06
2018-02-19T10:30:42.871Z,1035.07
2018-02-19T10:31:42.861Z,1035.18
2018-02-19T10:32:42.853Z,1035.16
2018-02-19T10:33:42.846Z,1035.14
2018-02-19T10:34:42.833Z,1035.14
2018-02-19T10:35:42.823Z,1035.14
2018-02-19T10:36:42.810Z,1035.11
2018-02-19T10:37:42.798Z,1035.21
2018-02-19T10:38:42.789Z,1035.21
2018-02-19T10:39:42.781Z,1035.23
2018-02-19T10:40:42.772Z,1035.24
2018-02-19T10:41:42.758Z,1035.27
2018-02-19T10:42:42.748Z,1035.29
2018-02-19T10:43:42.737Z,1035.28
2018-02-19T10:44:42.797Z,1035.27
2018-02-19T10:45:42.717Z,1035.27
2018-02-19T10:46:42.706Z,1035.22
2018-02-19T10:47:42.696Z,1035.2
2018-02-19T10:48:42.698Z,1035.15
2018-02-19T10:49:42.674Z,1035.1
2018-02-19T10:50:42.666Z,1035.01
2018-02-19T10:51:42.654Z,1034.94
2018-02-19T10:52:42.675Z,1034.94
2018-02-19T10:53:42.630Z,1034.87
2018-02-19T10:54:42.623Z,1034.87
2018-02-19T10:55:42.610Z,1034.83
2018-02-19T10:56:42.601Z,1034.79
2018-02-19T10:57:42.596Z,1034.78
2018-02-19T10:58:42.581Z,1034.79
2018-02-19T10:59:42.568Z,1034.76
2018-02-19T11:00:42.567Z,1034.76
2018-02-19T11:01:42.547Z,1034.67
2018-02-19T11:02:42.547Z,1034.66
2018-02-19T11:03:42.526Z,1034.59
2018-02-19T11:04:42.516Z,1034.58
2018-02-19T11:05:42.505Z,1034.57
2018-02-19T11:06:42.495Z,1034.54
2018-02-19T11:07:42.486Z,1034.54
2018-02-19T11:08:42.477Z,1034.49
2018-02-19T11:09:42.464Z,1034.43
2018-02-19T11:10:42.454Z,1034.4
2018-02-19T11:11:42.446Z,1034.33
2018-02-19T11:12:42.438Z,1034.24
2018-02-19T11:13:42.426Z,1034.22
2018-02-19T11:14:42.412Z,1034.14
2018-02-19T11:15:42.402Z,1034.09
2018-02-19T11:16:42.392Z,1033.97
2018-02-19T11:17:42.381Z,1033.88
2018-02-19T11:18:42.371Z,1033.76
2018-02-19T11:19:42.363Z,1033.66
2018-02-19T11:20:42.353Z,1033.69
2018-02-19T11:21:42.342Z,1033.69
2018-02-19T11:22:42.334Z,1033.68
2018-02-19T11:23:42.322Z,1033.62
2018-02-19T11:24:42.311Z,1033.57
2018-02-19T11:25:42.302Z,1033.51
2018-02-19T11:26:42.304Z,1033.48
2018-02-19T11:27:42.286Z,1033.46
2018-02-19T11:28:42.271Z,1033.44
2018-02-19T11:29:42.263Z,1033.42
2018-02-19T11:30:42.252Z,1033.34
2018-02-19T11:31:42.243Z,1033.36
2018-02-19T11:32:42.239Z,1033.38
2018-02-19T11:33:42.224Z,1033.38
2018-02-19T11:34:42.216Z,1033.38
2018-02-19T11:35:42.211Z,1033.38
2018-02-19T11:36:42.200Z,1033.41
2018-02-19T11:37:42.199Z,1033.41
2018-02-19T11:38:42.176Z,1033.48
2018-02-19T11:39:42.167Z,1033.46
2018-02-19T11:40:42.157Z,1033.4
2018-02-19T11:41:42.148Z,1033.46
2018-02-19T11:42:42.153Z,1033.45
2018-02-19T11:43:42.130Z,1033.46
2018-02-19T11:44:42.122Z,1033.47
2018-02-19T11:45:42.112Z,1033.46
2018-02-19T11:46:42.107Z,1033.44
2018-02-19T11:47:42.091Z,1033.44
2018-02-19T11:48:42.088Z,1033.42
2018-02-19T11:49:42.075Z,1033.38
2018-02-19T11:50:42.064Z,1033.31
2018-02-19T11:51:42.055Z,1033.29
2018-02-19T11:52:42.046Z,1033.32
2018-02-19T11:53:42.036Z,1033.32
2018-02-19T11:54:42.052Z,1033.3
2018-02-19T11:55:42.020Z,1033.31
2018-02-19T11:56:42.007Z,1033.32
2018-02-19T11:57:41.999Z,1033.39
2018-02-19T11:58:41.994Z,1033.38
2018-02-19T11:59:41.979Z,1033.42
2018-02-19T12:00:41.970Z,1033.42
2018-02-19T12:01:41.961Z,1033.38
2018-02-19T12:02:41.952Z,1033.39
2018-02-19T12:03:41.942Z,1033.3
2018-02-19T12:04:41.933Z,1033.24
2018-02-19T12:05:41.922Z,1033.22
2018-02-19T12:06:41.913Z,1033.24
2018-02-19T12:07:41.905Z,1033.28
2018-02-19T12:08:41.896Z,1033.31